^^
Station Historical Data
 
Daily Summary for November 17, 2018 Units:  Metric    English   Both
« Previous Day
Next Day »
Daily Weekly Monthly Yearly Custom
  Current: High: Low: Average:
Temperature: 23.2 °C -17.8 °C 17.3 °C 19.3 °C
Dew Point: 6 °C -17.8 °C 2.8 °C 4.6 °C
Humidity: 33% Humidity% 27% 38%
Wind Speed: 20.9km/h 0km/h 7.9km/h 16.4km/h
Wind Gust: 25.7km/h 0km/h - -
WindSW - - SSW
Pressure: 1013.1 hPa 0 hPa 1012.1 hPa -
Precipitation: 0 mm      
Historical Graphs
 
 
Tabular Data for November 17, 2018
Time Temperature Dew Point Pressure Wind Wind Speed Wind Gust Humidity Rainfall Rate (Hourly) solar Conditions
-17.8 °C -17.8 °C 0 hPa Calm     Humidity% 0 mm SolarRadiationWatts/m^2 W/m2 Conditions
00:04 22.6 °C 3.7 °C 1013.4 hPa SSW 30.6 km/h 30.6 km/h 29% 0 mm 0.00 W/m2
00:08 22.8 °C 2.8 °C 1013.4 hPa SSW 20.9 km/h 27.4 km/h 27% 0 mm 0.00 W/m2
00:12 22.6 °C 3.2 °C 1013.4 hPa SSW 13 km/h 20.9 km/h 28% 0 mm 0.00 W/m2
00:18 22.4 °C 3 °C 1013.4 hPa SSW 17.7 km/h 25.7 km/h 28% 0 mm 0.00 W/m2
00:24 22.2 °C 2.8 °C 1013.1 hPa SSW 16.3 km/h 24.1 km/h 28% 0 mm 0.00 W/m2
00:28 22.2 °C 3.3 °C 1013.1 hPa SSW 19.5 km/h 24.1 km/h 29% 0 mm 0.00 W/m2
00:33 22.1 °C 3.2 °C 1013.1 hPa SW 20.9 km/h 24.1 km/h 29% 0 mm 0.00 W/m2
00:37 22 °C 3.1 °C 1013.1 hPa SW 20.9 km/h 22.5 km/h 29% 0 mm 0.00 W/m2
00:43 21.7 °C 2.9 °C 1013.1 hPa SSW 11.1 km/h 17.7 km/h 29% 0 mm 0.00 W/m2
00:49 21.5 °C 3.2 °C 1013.1 hPa SSW 14.3 km/h 19.3 km/h 30% 0 mm 0.00 W/m2
00:53 21.5 °C 3.7 °C 1013.1 hPa SSW 14.3 km/h 16.1 km/h 31% 0 mm 0.00 W/m2
00:59 21.5 °C 3.7 °C 1013.1 hPa SSW 16.3 km/h 22.5 km/h 31% 0 mm 0.00 W/m2
01:03 21.4 °C 4 °C 1013.1 hPa SSW 22.7 km/h 27.4 km/h 32% 0 mm 0.00 W/m2
01:09 21.3 °C 4.4 °C 1013.1 hPa SSW 25.9 km/h 25.7 km/h 33% 0 mm 0.00 W/m2
01:14 21.3 °C 4.4 °C 1013.1 hPa South 17.7 km/h 27.4 km/h 33% 0 mm 0.00 W/m2
01:18 21.1 °C 4.2 °C 1013.1 hPa SSW 14.3 km/h 20.9 km/h 33% 0 mm 0.00 W/m2
01:24 20.9 °C 4 °C 1013.1 hPa SSW 19.5 km/h 20.9 km/h 33% 0 mm 0.00 W/m2
01:28 20.8 °C 3.9 °C 1013.1 hPa SSW 13 km/h 22.5 km/h 33% 0 mm 0.00 W/m2
01:34 20.6 °C 3.8 °C 1013.1 hPa SSW 13 km/h 17.7 km/h 33% 0 mm 0.00 W/m2
01:38 20.5 °C 3.7 °C 1012.8 hPa SSW 16.3 km/h 17.7 km/h 33% 0 mm 0.00 W/m2
01:44 20.4 °C 3.6 °C 1012.8 hPa SSW 14.3 km/h 16.1 km/h 33% 0 mm 0.00 W/m2
01:49 20.3 °C 3.5 °C 1012.8 hPa SSW 11.1 km/h 16.1 km/h 33% 0 mm 0.00 W/m2
01:53 20.3 °C 3.9 °C 1012.8 hPa South 17.7 km/h 20.9 km/h 34% 0 mm 0.00 W/m2
01:57 20.2 °C 3.8 °C 1012.8 hPa SSW 16.3 km/h 19.3 km/h 34% 0 mm 0.00 W/m2
02:03 20.2 °C 3.8 °C 1012.8 hPa SSW 14.3 km/h 17.7 km/h 34% 0 mm 0.00 W/m2
02:09 20.1 °C 3.3 °C 1012.8 hPa SSW 14.3 km/h 22.5 km/h 33% 0 mm 0.00 W/m2
02:13 20.1 °C 3.3 °C 1012.8 hPa SSW 19.5 km/h 20.9 km/h 33% 0 mm 0.00 W/m2
02:19 19.9 °C 3.1 °C 1012.4 hPa SSW 16.3 km/h 20.9 km/h 33% 0 mm 0.00 W/m2
02:23 19.9 °C 3.6 °C 1012.4 hPa SSW 14.3 km/h 17.7 km/h 34% 0 mm 0.00 W/m2
02:29 19.7 °C 3.4 °C 1012.4 hPa SSW 11.1 km/h 20.9 km/h 34% 0 mm 0.00 W/m2
02:33 19.6 °C 3.7 °C 1012.4 hPa SSW 16.3 km/h 20.9 km/h 35% 0 mm 0.00 W/m2
02:39 19.4 °C 3.9 °C 1012.4 hPa SSW 13 km/h 19.3 km/h 36% 0 mm 0.00 W/m2
02:43 19.3 °C 4.2 °C 1012.1 hPa SSW 14.3 km/h 22.5 km/h 37% 0 mm 0.00 W/m2
02:48 19.2 °C 4.2 °C 1012.1 hPa SSW 16.3 km/h 20.9 km/h 37% 0 mm 0.00 W/m2
02:54 19.1 °C 4.4 °C 1012.1 hPa SSW 20.9 km/h 24.1 km/h 38% 0 mm 0.00 W/m2
02:58 19.1 °C 4.4 °C 1012.1 hPa SSW 24.1 km/h 25.7 km/h 38% 0 mm 0.00 W/m2
03:04 19.1 °C 4.4 °C 1012.4 hPa SSW 14.3 km/h 24.1 km/h 38% 0 mm 0.00 W/m2
03:08 19.1 °C 4.8 °C 1012.4 hPa SSW 22.7 km/h 22.5 km/h 39% 0 mm 0.00 W/m2
03:14 19 °C 4.7 °C 1012.1 hPa SSW 20.9 km/h 24.1 km/h 39% 0 mm 0.00 W/m2
03:18 18.9 °C 4.6 °C 1012.1 hPa SSW 20.9 km/h 22.5 km/h 39% 0 mm 0.00 W/m2
03:24 18.9 °C 4.6 °C 1012.1 hPa SW 19.5 km/h 25.7 km/h 39% 0 mm 0.00 W/m2
03:28 18.8 °C 4.9 °C 1012.4 hPa SW 27.4 km/h 27.4 km/h 40% 0 mm 0.00 W/m2
03:34 18.8 °C 4.9 °C 1012.4 hPa SSW 22.7 km/h 25.7 km/h 40% 0 mm 0.00 W/m2
03:38 18.8 °C 4.9 °C 1012.1 hPa SSW 20.9 km/h 24.1 km/h 40% 0 mm 0.00 W/m2
03:44 18.7 °C 4.8 °C 1012.1 hPa SSW 19.5 km/h 24.1 km/h 40% 0 mm 0.00 W/m2
03:49 18.6 °C 4.7 °C 1012.1 hPa SSW 19.5 km/h 20.9 km/h 40% 0 mm 0.00 W/m2
03:53 18.6 °C 4.7 °C 1012.4 hPa SSW 20.9 km/h 24.1 km/h 40% 0 mm 0.00 W/m2
03:59 18.6 °C 4.7 °C 1012.1 hPa SSW 17.7 km/h 24.1 km/h 40% 0 mm 0.00 W/m2
04:03 18.6 °C 4.7 °C 1012.4 hPa SSW 16.3 km/h 16.1 km/h 40% 0 mm 0.00 W/m2
04:09 18.5 °C 5 °C 1012.4 hPa SSW 20.9 km/h 20.9 km/h 41% 0 mm 0.00 W/m2
04:13 18.5 °C 5 °C 1012.4 hPa SSW 14.3 km/h 20.9 km/h 41% 0 mm 0.00 W/m2
04:19 18.4 °C 4.9 °C 1012.1 hPa SSW 11.1 km/h 17.7 km/h 41% 0 mm 0.00 W/m2
04:23 18.4 °C 5.3 °C 1012.1 hPa SSW 13 km/h 17.7 km/h 42% 0 mm 0.00 W/m2
04:29 18.3 °C 5.2 °C 1012.1 hPa SSW 11.1 km/h 19.3 km/h 42% 0 mm 0.00 W/m2
04:33 18.3 °C 5.5 °C 1012.1 hPa SSW 14.3 km/h 17.7 km/h 43% 0 mm 0.00 W/m2
04:39 18.2 °C 5.4 °C 1012.1 hPa SSW 11.1 km/h 17.7 km/h 43% 0 mm 0.00 W/m2
04:43 18.1 °C 5.3 °C 1012.1 hPa SSW 11.1 km/h 16.1 km/h 43% 0 mm 0.00 W/m2
04:46 18.1 °C 5.3 °C 1012.1 hPa SSW 14.3 km/h 14.5 km/h 43% 0 mm 0.00 W/m2
04:52 17.9 °C 5.5 °C 1012.1 hPa SSW 14.3 km/h 17.7 km/h 44% 0 mm 0.00 W/m2
04:58 17.9 °C 5.5 °C 1012.1 hPa SSW 14.3 km/h 22.5 km/h 44% 0 mm 0.00 W/m2
05:04 17.9 °C 5.8 °C 1012.1 hPa SSW 13 km/h 17.7 km/h 45% 0 mm 0.00 W/m2
05:08 17.8 °C 5.7 °C 1012.1 hPa SW 17.7 km/h 19.3 km/h 45% 0 mm 0.00 W/m2
05:14 17.7 °C 5.6 °C 1012.1 hPa SSW 13 km/h 16.1 km/h 45% 0 mm 0.00 W/m2
05:18 17.7 °C 5.6 °C 1012.1 hPa SSW 11.1 km/h 16.1 km/h 45% 0 mm 0.00 W/m2
05:22 17.6 °C 5.8 °C 1012.1 hPa SSW 9.7 km/h 16.1 km/h 46% 0 mm 0.00 W/m2
05:27 17.6 °C 5.8 °C 1012.1 hPa SW 13 km/h 14.5 km/h 46% 0 mm 0.00 W/m2
05:33 17.4 °C 5.7 °C 1012.1 hPa SSW 11.1 km/h 16.1 km/h 46% 0 mm 0.00 W/m2
05:39 17.4 °C 5.7 °C 1012.4 hPa SSW 16.3 km/h 17.7 km/h 46% 0 mm 0.00 W/m2
05:43 17.4 °C 6 °C 1012.4 hPa SSW 16.3 km/h 16.1 km/h 47% 0 mm 0.00 W/m2
05:49 17.4 °C 6 °C 1012.4 hPa SSW 14.3 km/h 17.7 km/h 47% 0 mm 5.00 W/m2
05:51 17.4 °C 6 °C 1012.4 hPa SSW 7.9 km/h 14.5 km/h 47% 0 mm 5.00 W/m2
05:55 17.3 °C 6.2 °C 1012.4 hPa SW 9.7 km/h 14.5 km/h 48% 0 mm 9.00 W/m2
06:49 18.2 °C 7 °C 1012.8 hPa SSW 13 km/h 17.7 km/h 48% 0 mm 137.00 W/m2
06:53 18.3 °C 6.8 °C 1012.8 hPa SW 13 km/h 17.7 km/h 47% 0 mm 155.00 W/m2
06:59 18.5 °C 7 °C 1012.8 hPa SW 16.3 km/h 20.9 km/h 47% 0 mm 181.00 W/m2
07:03 18.6 °C 6.8 °C 1012.8 hPa SW 16.3 km/h 22.5 km/h 46% 0 mm 200.00 W/m2
07:09 18.8 °C 6.9 °C 1012.8 hPa SSW 19.5 km/h 24.1 km/h 46% 0 mm 225.00 W/m2
07:13 18.8 °C 6.6 °C 1012.8 hPa SW 17.7 km/h 25.7 km/h 45% 0 mm 239.00 W/m2
07:53 20.4 °C 6.7 °C 1013.1 hPa SW 20.9 km/h 22.5 km/h 41% 0 mm 380.00 W/m2
07:57 20.6 °C 6.9 °C 1013.1 hPa SW 17.7 km/h 22.5 km/h 41% 0 mm 390.00 W/m2
08:03 20.9 °C 6.4 °C 1013.1 hPa SW 14.3 km/h 22.5 km/h 39% 0 mm 411.00 W/m2
08:07 21 °C 6.5 °C 1013.1 hPa SW 16.3 km/h 20.9 km/h 39% 0 mm 425.00 W/m2
08:11 21.2 °C 6.3 °C 1013.1 hPa SW 17.7 km/h 22.5 km/h 38% 0 mm 441.00 W/m2
08:18 21.4 °C 6.5 °C 1013.1 hPa SW 16.3 km/h 22.5 km/h 38% 0 mm 462.00 W/m2
08:24 21.7 °C 6.4 °C 1013.1 hPa SW 17.7 km/h 22.5 km/h 37% 0 mm 485.00 W/m2
08:28 21.8 °C 6.1 °C 1013.1 hPa SW 16.3 km/h 22.5 km/h 36% 0 mm 496.00 W/m2
08:34 22.2 °C 6.4 °C 1013.1 hPa SW 20.9 km/h 25.7 km/h 36% 0 mm 515.00 W/m2
08:44 22.7 °C 6 °C 1013.1 hPa WSW 19.5 km/h 22.5 km/h 34% 0 mm 550.00 W/m2
08:48 23 °C 5.9 °C 1013.1 hPa SW 17.7 km/h 24.1 km/h 33% 0 mm 564.00 W/m2
08:54 23.2 °C 6 °C 1013.1 hPa SW 20.9 km/h 25.7 km/h 33% 0 mm 585.00 W/m2
Canyon Roadhouse, Fishriver Canyon, Namibia
Compliments of Weather Underground - 2 mb